sensor_id;sensor_type;location;lat;lon;timestamp;pressure;altitude;pressure_sealevel;temperature;humidity
18569;BME280;14780;48.316;-1.050;2023-05-22T00:01:18;99233.94;;;25.20;37.11
18569;BME280;14780;48.316;-1.050;2023-05-22T00:04:04;99224.91;;;25.19;36.94
18569;BME280;14780;48.316;-1.050;2023-05-22T00:06:49;99215.03;;;25.18;37.07
18569;BME280;14780;48.316;-1.050;2023-05-22T00:09:34;99216.97;;;25.18;36.93
18569;BME280;14780;48.316;-1.050;2023-05-22T00:12:19;99213.13;;;25.19;36.95
18569;BME280;14780;48.316;-1.050;2023-05-22T00:15:04;99208.47;;;25.19;37.05
18569;BME280;14780;48.316;-1.050;2023-05-22T00:17:49;99214.78;;;25.20;37.17
18569;BME280;14780;48.316;-1.050;2023-05-22T00:20:36;99203.81;;;25.20;37.03
18569;BME280;14780;48.316;-1.050;2023-05-22T00:23:23;99210.09;;;25.20;36.90
18569;BME280;14780;48.316;-1.050;2023-05-22T00:26:08;99210.41;;;25.19;36.94
18569;BME280;14780;48.316;-1.050;2023-05-22T00:28:52;99209.03;;;25.21;36.95
18569;BME280;14780;48.316;-1.050;2023-05-22T00:31:37;99209.28;;;25.20;37.06
18569;BME280;14780;48.316;-1.050;2023-05-22T00:34:22;99210.09;;;25.20;36.94
18569;BME280;14780;48.316;-1.050;2023-05-22T00:37:07;99215.56;;;25.20;36.92
18569;BME280;14780;48.316;-1.050;2023-05-22T00:39:51;99207.97;;;25.22;36.96
18569;BME280;14780;48.316;-1.050;2023-05-22T00:42:36;99207.97;;;25.22;37.10
18569;BME280;14780;48.316;-1.050;2023-05-22T00:45:21;99215.31;;;25.22;37.06
18569;BME280;14780;48.316;-1.050;2023-05-22T00:48:07;99213.44;;;25.22;36.90
18569;BME280;14780;48.316;-1.050;2023-05-22T00:50:54;99223.53;;;25.22;36.95
18569;BME280;14780;48.316;-1.050;2023-05-22T00:53:40;99215.56;;;25.20;37.11
18569;BME280;14780;48.316;-1.050;2023-05-22T00:56:25;99215.56;;;25.20;36.97
18569;BME280;14780;48.316;-1.050;2023-05-22T00:59:10;99204.63;;;25.20;36.85
18569;BME280;14780;48.316;-1.050;2023-05-22T01:01:55;99205.72;;;25.19;36.96
18569;BME280;14780;48.316;-1.050;2023-05-22T01:04:43;99203.28;;;25.18;36.92
18569;BME280;14780;48.316;-1.050;2023-05-22T01:07:32;99210.09;;;25.20;36.87
18569;BME280;14780;48.316;-1.050;2023-05-22T01:10:18;99210.09;;;25.20;36.85
18569;BME280;14780;48.316;-1.050;2023-05-22T01:33:56;99213.94;;;25.19;36.91
18569;BME280;14780;48.316;-1.050;2023-05-22T01:36:42;99213.13;;;25.19;36.92
18569;BME280;14780;48.316;-1.050;2023-05-22T01:39:28;99196.72;;;25.19;36.82
18569;BME280;14780;48.316;-1.050;2023-05-22T01:42:13;99203.28;;;25.18;36.91
18569;BME280;14780;48.316;-1.050;2023-05-22T01:44:58;99197.25;;;25.16;36.80
18569;BME280;14780;48.316;-1.050;2023-05-22T01:47:44;99200.28;;;25.14;36.81
18569;BME280;14780;48.316;-1.050;2023-05-22T01:50:30;99196.97;;;25.12;36.79
18569;BME280;14780;48.316;-1.050;2023-05-22T01:59:48;99192.91;;;25.05;36.82
18569;BME280;14780;48.316;-1.050;2023-05-22T02:02:39;99194.81;;;25.04;36.91
18569;BME280;14780;48.316;-1.050;2023-05-22T02:05:26;99206.88;;;24.98;36.87
18569;BME280;14780;48.316;-1.050;2023-05-22T02:08:13;99198.94;;;24.97;36.80
18569;BME280;14780;48.316;-1.050;2023-05-22T02:11:00;99199.22;;;24.95;36.94
18569;BME280;14780;48.316;-1.050;2023-05-22T02:13:46;99200.31;;;24.94;36.83
18569;BME280;14780;48.316;-1.050;2023-05-22T02:16:31;99200.84;;;24.91;36.83
18569;BME280;14780;48.316;-1.050;2023-05-22T02:19:16;99203.59;;;24.91;36.81
18569;BME280;14780;48.316;-1.050;2023-05-22T02:22:01;99189.91;;;24.91;36.90
18569;BME280;14780;48.316;-1.050;2023-05-22T02:24:47;99193.75;;;24.90;36.90
18569;BME280;14780;48.316;-1.050;2023-05-22T02:27:32;99191.31;;;24.89;36.82
18569;BME280;14780;48.316;-1.050;2023-05-22T02:30:16;99193.22;;;24.88;36.76
18569;BME280;14780;48.316;-1.050;2023-05-22T02:33:01;99194.84;;;24.89;36.83
18569;BME280;14780;48.316;-1.050;2023-05-22T02:35:48;99194.31;;;24.87;36.78
18569;BME280;14780;48.316;-1.050;2023-05-22T02:38:33;99199.25;;;24.85;36.81
18569;BME280;14780;48.316;-1.050;2023-05-22T02:41:18;99191.84;;;24.86;36.88
18569;BME280;14780;48.316;-1.050;2023-05-22T02:44:02;99196.22;;;24.87;36.76
18569;BME280;14780;48.316;-1.050;2023-05-22T02:46:47;99200.88;;;24.86;36.81
18569;BME280;14780;48.316;-1.050;2023-05-22T02:49:32;99195.13;;;24.88;36.92
18569;BME280;14780;48.316;-1.050;2023-05-22T02:52:16;99197.31;;;24.86;36.79
18569;BME280;14780;48.316;-1.050;2023-05-22T02:55:04;99196.50;;;24.85;36.75
18569;BME280;14780;48.316;-1.050;2023-05-22T02:57:49;99192.38;;;24.88;36.89
18569;BME280;14780;48.316;-1.050;2023-05-22T03:00:34;99196.47;;;24.90;36.95
18569;BME280;14780;48.316;-1.050;2023-05-22T03:03:18;99201.41;;;24.88;36.77
18569;BME280;14780;48.316;-1.050;2023-05-22T03:06:03;99201.41;;;24.88;36.81
18569;BME280;14780;48.316;-1.050;2023-05-22T03:08:48;99199.22;;;24.90;36.91
18569;BME280;14780;48.316;-1.050;2023-05-22T03:11:33;99186.63;;;24.89;36.89
18569;BME280;14780;48.316;-1.050;2023-05-22T03:14:18;99185.00;;;24.88;36.87
18569;BME280;14780;48.316;-1.050;2023-05-22T03:17:03;99193.75;;;24.90;36.75
18569;BME280;14780;48.316;-1.050;2023-05-22T03:19:48;99183.09;;;24.89;36.71
18569;BME280;14780;48.316;-1.050;2023-05-22T03:22:33;99191.00;;;24.90;36.91
18569;BME280;14780;48.316;-1.050;2023-05-22T03:25:17;99192.09;;;24.89;36.89
18569;BME280;14780;48.316;-1.050;2023-05-22T03:28:04;99194.56;;;24.91;36.80
18569;BME280;14780;48.316;-1.050;2023-05-22T03:30:49;99192.94;;;24.90;36.95
18569;BME280;14780;48.316;-1.050;2023-05-22T03:33:33;99190.47;;;24.88;36.69
18569;BME280;14780;48.316;-1.050;2023-05-22T03:36:20;99191.03;;;24.85;36.87
18569;BME280;14780;48.316;-1.050;2023-05-22T03:39:07;99194.03;;;24.84;36.88
18569;BME280;14780;48.316;-1.050;2023-05-22T03:41:52;99196.50;;;24.85;36.76
18569;BME280;14780;48.316;-1.050;2023-05-22T03:44:37;99196.50;;;24.85;36.88
18569;BME280;14780;48.316;-1.050;2023-05-22T03:47:21;99197.59;;;24.84;36.77
18569;BME280;14780;48.316;-1.050;2023-05-22T03:50:06;99198.69;;;24.83;36.95
18569;BME280;14780;48.316;-1.050;2023-05-22T03:52:51;99199.50;;;24.84;36.91
18569;BME280;14780;48.316;-1.050;2023-05-22T03:55:35;99205.53;;;24.86;36.87
18569;BME280;14780;48.316;-1.050;2023-05-22T03:58:20;99207.16;;;24.87;36.76
18569;BME280;14780;48.316;-1.050;2023-05-22T04:01:05;99211.84;;;24.86;36.79
18569;BME280;14780;48.316;-1.050;2023-05-22T04:03:53;99202.78;;;24.86;36.92
18569;BME280;14780;48.316;-1.050;2023-05-22T04:06:38;99204.72;;;24.85;36.96
18569;BME280;14780;48.316;-1.050;2023-05-22T04:09:31;99201.69;;;24.87;36.92
18569;BME280;14780;48.316;-1.050;2023-05-22T04:12:15;99211.84;;;24.86;36.93
18569;BME280;14780;48.316;-1.050;2023-05-22T04:15:00;99210.72;;;24.87;36.92
18569;BME280;14780;48.316;-1.050;2023-05-22T04:17:45;99216.22;;;24.87;36.77
18569;BME280;14780;48.316;-1.050;2023-05-22T04:20:30;99209.09;;;24.86;36.78
18569;BME280;14780;48.316;-1.050;2023-05-22T04:23:15;99208.00;;;24.87;36.97
18569;BME280;14780;48.316;-1.050;2023-05-22T04:26:01;99196.22;;;24.87;36.96
18569;BME280;14780;48.316;-1.050;2023-05-22T04:28:46;99197.31;;;24.86;36.88
18569;BME280;14780;48.316;-1.050;2023-05-22T04:31:31;99197.84;;;24.88;36.94
18569;BME280;14780;48.316;-1.050;2023-05-22T04:34:16;99193.47;;;24.87;36.92
18569;BME280;14780;48.316;-1.050;2023-05-22T04:37:02;99201.41;;;24.88;36.79
18569;BME280;14780;48.316;-1.050;2023-05-22T04:39:47;99205.78;;;24.89;36.72
18569;BME280;14780;48.316;-1.050;2023-05-22T04:42:32;99196.22;;;24.87;36.87
18569;BME280;14780;48.316;-1.050;2023-05-22T04:45:18;99200.59;;;24.88;36.90
18569;BME280;14780;48.316;-1.050;2023-05-22T04:48:03;99202.53;;;24.87;36.96
18569;BME280;14780;48.316;-1.050;2023-05-22T04:50:49;99207.16;;;24.87;36.72
18569;BME280;14780;48.316;-1.050;2023-05-22T04:53:34;99202.78;;;24.86;36.77
18569;BME280;14780;48.316;-1.050;2023-05-22T04:56:19;99203.63;;;24.86;36.78
18569;BME280;14780;48.316;-1.050;2023-05-22T04:59:04;99200.06;;;24.86;36.78
18569;BME280;14780;48.316;-1.050;2023-05-22T05:01:52;99197.03;;;24.87;36.76
18569;BME280;14780;48.316;-1.050;2023-05-22T05:04:37;99206.34;;;24.86;36.79
18569;BME280;14780;48.316;-1.050;2023-05-22T05:07:21;99202.25;;;24.89;36.79
18569;BME280;14780;48.316;-1.050;2023-05-22T05:10:07;99205.00;;;24.89;36.81
18569;BME280;14780;48.316;-1.050;2023-05-22T05:12:52;99206.91;;;24.88;36.79
18569;BME280;14780;48.316;-1.050;2023-05-22T05:15:37;99211.53;;;24.88;36.92
18569;BME280;14780;48.316;-1.050;2023-05-22T05:18:22;99211.00;;;24.91;36.78
18569;BME280;14780;48.316;-1.050;2023-05-22T05:21:06;99206.63;;;24.90;36.91
18569;BME280;14780;48.316;-1.050;2023-05-22T05:23:51;99212.91;;;24.90;36.80
18569;BME280;14780;48.316;-1.050;2023-05-22T05:26:36;99210.16;;;24.90;36.78
18569;BME280;14780;48.316;-1.050;2023-05-22T05:29:21;99214.84;;;24.90;36.80
18569;BME280;14780;48.316;-1.050;2023-05-22T05:32:06;99223.59;;;24.92;36.82
18569;BME280;14780;48.316;-1.050;2023-05-22T05:34:51;99225.22;;;24.93;36.81
18569;BME280;14780;48.316;-1.050;2023-05-22T05:37:35;99227.69;;;24.94;36.76
18569;BME280;14780;48.316;-1.050;2023-05-22T05:40:20;99233.16;;;24.94;36.95
18569;BME280;14780;48.316;-1.050;2023-05-22T05:43:04;99228.50;;;24.95;36.85
18569;BME280;14780;48.316;-1.050;2023-05-22T05:45:51;99224.13;;;24.94;36.92
18569;BME280;14780;48.316;-1.050;2023-05-22T05:48:36;99221.38;;;24.94;36.96
18569;BME280;14780;48.316;-1.050;2023-05-22T05:51:20;99226.31;;;24.97;36.90
18569;BME280;14780;48.316;-1.050;2023-05-22T05:54:05;99226.59;;;25.00;37.05
18569;BME280;14780;48.316;-1.050;2023-05-22T05:56:50;99222.19;;;24.99;36.98
18569;BME280;14780;48.316;-1.050;2023-05-22T05:59:35;99218.91;;;25.02;36.99
18569;BME280;14780;48.316;-1.050;2023-05-22T06:02:20;99218.91;;;25.02;36.97
18569;BME280;14780;48.316;-1.050;2023-05-22T06:05:05;99220.03;;;25.01;37.08
18569;BME280;14780;48.316;-1.050;2023-05-22T06:07:49;99215.06;;;25.03;37.09
18569;BME280;14780;48.316;-1.050;2023-05-22T06:10:35;99211.81;;;25.01;37.12
18569;BME280;14780;48.316;-1.050;2023-05-22T06:13:20;99209.03;;;25.06;37.29
18569;BME280;14780;48.316;-1.050;2023-05-22T06:16:06;99212.31;;;25.13;37.43
18569;BME280;14780;48.316;-1.050;2023-05-22T06:18:51;99212.88;;;25.15;37.48
18569;BME280;14780;48.316;-1.050;2023-05-22T06:21:36;99216.16;;;25.17;37.48
18569;BME280;14780;48.316;-1.050;2023-05-22T06:24:20;99213.94;;;25.19;37.61
18569;BME280;14780;48.316;-1.050;2023-05-22T06:27:05;99225.72;;;25.20;37.51
18569;BME280;14780;48.316;-1.050;2023-05-22T06:29:49;99230.38;;;25.19;37.39
18569;BME280;14780;48.316;-1.050;2023-05-22T06:32:34;99227.94;;;25.18;37.53
18569;BME280;14780;48.316;-1.050;2023-05-22T06:35:20;99233.16;;;25.14;37.46
18569;BME280;14780;48.316;-1.050;2023-05-22T06:38:04;99240.00;;;25.12;37.42
18569;BME280;14780;48.316;-1.050;2023-05-22T06:40:49;99243.81;;;25.11;37.30
18569;BME280;14780;48.316;-1.050;2023-05-22T06:43:34;99247.63;;;25.10;37.42
18569;BME280;14780;48.316;-1.050;2023-05-22T06:46:19;99251.47;;;25.09;37.39
18569;BME280;14780;48.316;-1.050;2023-05-22T06:49:04;99256.16;;;25.08;37.46
18569;BME280;14780;48.316;-1.050;2023-05-22T06:51:48;99259.97;;;25.07;37.41
18569;BME280;14780;48.316;-1.050;2023-05-22T06:54:33;99267.63;;;25.05;37.47
18569;BME280;14780;48.316;-1.050;2023-05-22T06:57:17;99273.09;;;25.05;37.48
18569;BME280;14780;48.316;-1.050;2023-05-22T07:00:03;99274.22;;;25.04;37.40
18569;BME280;14780;48.316;-1.050;2023-05-22T07:02:53;99272.31;;;25.05;37.50
18569;BME280;14780;48.316;-1.050;2023-05-22T07:05:37;99270.66;;;25.04;37.66
18569;BME280;14780;48.316;-1.050;2023-05-22T07:08:23;99275.31;;;25.03;37.49
18569;BME280;14780;48.316;-1.050;2023-05-22T07:11:07;99285.44;;;25.03;37.55
18569;BME280;14780;48.316;-1.050;2023-05-22T07:13:52;99290.09;;;25.02;37.57
18569;BME280;14780;48.316;-1.050;2023-05-22T07:16:37;99289.00;;;25.03;37.68
18569;BME280;14780;48.316;-1.050;2023-05-22T07:19:22;99284.63;;;25.02;37.64
18569;BME280;14780;48.316;-1.050;2023-05-22T07:22:07;99298.31;;;25.02;37.59
18569;BME280;14780;48.316;-1.050;2023-05-22T07:24:51;99296.66;;;25.01;37.62
18569;BME280;14780;48.316;-1.050;2023-05-22T07:27:36;99297.78;;;25.00;37.55
18569;BME280;14780;48.316;-1.050;2023-05-22T07:30:21;99292.28;;;25.00;37.45
18569;BME280;14780;48.316;-1.050;2023-05-22T07:33:06;99298.31;;;24.97;37.59
18569;BME280;14780;48.316;-1.050;2023-05-22T07:35:51;99293.66;;;24.98;37.48
18569;BME280;14780;48.316;-1.050;2023-05-22T07:38:35;99289.00;;;24.98;37.49
18569;BME280;14780;48.316;-1.050;2023-05-22T07:41:20;99299.13;;;24.98;37.46
18569;BME280;14780;48.316;-1.050;2023-05-22T07:44:06;99296.66;;;24.96;37.63
18569;BME280;14780;48.316;-1.050;2023-05-22T07:46:51;99301.03;;;24.97;37.48
18569;BME280;14780;48.316;-1.050;2023-05-22T07:49:37;99307.63;;;24.96;37.56
18569;BME280;14780;48.316;-1.050;2023-05-22T07:52:21;99303.78;;;24.97;37.57
18569;BME280;14780;48.316;-1.050;2023-05-22T07:55:07;99298.31;;;24.97;37.47
18569;BME280;14780;48.316;-1.050;2023-05-22T07:57:52;99298.31;;;24.97;37.62
18569;BME280;14780;48.316;-1.050;2023-05-22T08:00:37;99299.41;;;24.96;37.64
18569;BME280;14780;48.316;-1.050;2023-05-22T08:03:21;99300.22;;;24.97;37.55
18569;BME280;14780;48.316;-1.050;2023-05-22T08:06:06;99302.97;;;24.97;37.69
18569;BME280;14780;48.316;-1.050;2023-05-22T08:08:51;99292.81;;;24.97;37.48
18569;BME280;14780;48.316;-1.050;2023-05-22T08:11:36;99298.31;;;24.97;37.65
18569;BME280;14780;48.316;-1.050;2023-05-22T08:14:23;99296.66;;;24.96;37.56
18569;BME280;14780;48.316;-1.050;2023-05-22T08:17:07;99298.31;;;24.97;37.56
18569;BME280;14780;48.316;-1.050;2023-05-22T08:19:52;99310.34;;;24.96;37.60
18569;BME280;14780;48.316;-1.050;2023-05-22T08:22:38;99302.69;;;24.98;37.57
18569;BME280;14780;48.316;-1.050;2023-05-22T08:25:23;99311.72;;;24.99;37.58
18569;BME280;14780;48.316;-1.050;2023-05-22T08:28:07;99307.06;;;24.99;37.58
18569;BME280;14780;48.316;-1.050;2023-05-22T08:30:53;99305.41;;;24.98;37.68
18569;BME280;14780;48.316;-1.050;2023-05-22T08:33:39;99312.53;;;24.99;37.58
18569;BME280;14780;48.316;-1.050;2023-05-22T08:36:24;99305.41;;;24.98;37.60
18569;BME280;14780;48.316;-1.050;2023-05-22T08:39:10;99316.09;;;25.00;37.63
18569;BME280;14780;48.316;-1.050;2023-05-22T08:41:55;99323.22;;;25.01;37.79
18569;BME280;14780;48.316;-1.050;2023-05-22T08:44:40;99313.09;;;25.01;37.69
18569;BME280;14780;48.316;-1.050;2023-05-22T08:47:25;99313.09;;;25.01;37.92
18569;BME280;14780;48.316;-1.050;2023-05-22T08:50:12;99321.31;;;25.01;37.63
18569;BME280;14780;48.316;-1.050;2023-05-22T08:52:59;99317.47;;;25.02;37.64
18569;BME280;14780;48.316;-1.050;2023-05-22T08:55:47;99321.00;;;25.03;37.56
18569;BME280;14780;48.316;-1.050;2023-05-22T08:58:34;99310.06;;;25.03;37.59
18569;BME280;14780;48.316;-1.050;2023-05-22T09:01:20;99305.44;;;25.03;37.68
18569;BME280;14780;48.316;-1.050;2023-05-22T09:04:05;99315.28;;;25.04;37.58
18569;BME280;14780;48.316;-1.050;2023-05-22T09:06:51;99301.59;;;25.04;37.75
18569;BME280;14780;48.316;-1.050;2023-05-22T09:09:37;99303.53;;;25.04;37.60
18569;BME280;14780;48.316;-1.050;2023-05-22T09:12:22;99302.13;;;25.06;37.58
18569;BME280;14780;48.316;-1.050;2023-05-22T09:15:10;99302.97;;;25.07;37.73
18569;BME280;14780;48.316;-1.050;2023-05-22T09:17:55;99301.06;;;25.07;37.63
18569;BME280;14780;48.316;-1.050;2023-05-22T09:20:40;99299.13;;;25.08;37.61
18569;BME280;14780;48.316;-1.050;2023-05-22T09:23:27;99308.72;;;25.10;37.69
18569;BME280;14780;48.316;-1.050;2023-05-22T09:26:11;99305.97;;;25.10;37.63
18569;BME280;14780;48.316;-1.050;2023-05-22T09:28:58;99304.06;;;25.11;37.66
18569;BME280;14780;48.316;-1.050;2023-05-22T09:31:43;99303.78;;;25.12;37.75
18569;BME280;14780;48.316;-1.050;2023-05-22T09:34:28;99306.50;;;25.12;37.68
18569;BME280;14780;48.316;-1.050;2023-05-22T09:37:14;99303.50;;;25.14;37.59
18569;BME280;14780;48.316;-1.050;2023-05-22T09:40:00;99311.44;;;25.15;37.65
18569;BME280;14780;48.316;-1.050;2023-05-22T09:42:49;99313.88;;;25.17;37.80
18569;BME280;14780;48.316;-1.050;2023-05-22T09:45:35;99306.50;;;25.17;37.63
18569;BME280;14780;48.316;-1.050;2023-05-22T09:48:20;99310.88;;;25.18;37.58
18569;BME280;14780;48.316;-1.050;2023-05-22T09:51:05;99307.03;;;25.19;37.60
18569;BME280;14780;48.316;-1.050;2023-05-22T09:53:51;99317.50;;;25.22;37.75
18569;BME280;14780;48.316;-1.050;2023-05-22T09:56:39;99312.03;;;25.22;37.57
18569;BME280;14780;48.316;-1.050;2023-05-22T09:59:27;99308.97;;;25.24;37.71
18569;BME280;14780;48.316;-1.050;2023-05-22T10:02:13;99305.97;;;25.25;37.68
18569;BME280;14780;48.316;-1.050;2023-05-22T10:04:59;99310.34;;;25.26;37.63
18569;BME280;14780;48.316;-1.050;2023-05-22T10:07:53;99299.94;;;25.28;37.68
18569;BME280;14780;48.316;-1.050;2023-05-22T10:10:41;99313.63;;;25.28;37.66
18569;BME280;14780;48.316;-1.050;2023-05-22T10:13:27;99307.34;;;25.28;37.73
18569;BME280;14780;48.316;-1.050;2023-05-22T10:16:14;99314.19;;;25.30;37.70
18569;BME280;14780;48.316;-1.050;2023-05-22T10:18:59;99321.84;;;25.33;37.62
18569;BME280;14780;48.316;-1.050;2023-05-22T10:21:45;99313.63;;;25.33;37.60
18569;BME280;14780;48.316;-1.050;2023-05-22T10:24:31;99303.22;;;25.35;37.67
18569;BME280;14780;48.316;-1.050;2023-05-22T10:27:16;99304.88;;;25.36;37.64
18569;BME280;14780;48.316;-1.050;2023-05-22T10:36:09;99308.69;;;25.40;37.70
18569;BME280;14780;48.316;-1.050;2023-05-22T10:39:06;99306.50;;;25.42;37.58
18569;BME280;14780;48.316;-1.050;2023-05-22T10:41:54;99310.59;;;25.45;37.58
18569;BME280;14780;48.316;-1.050;2023-05-22T10:44:39;99316.06;;;25.45;37.51
18569;BME280;14780;48.316;-1.050;2023-05-22T10:47:25;99320.19;;;25.47;37.72
18569;BME280;14780;48.316;-1.050;2023-05-22T10:50:11;99318.81;;;25.50;37.71
18569;BME280;14780;48.316;-1.050;2023-05-22T10:56:14;99318.50;;;25.56;37.55
18569;BME280;14780;48.316;-1.050;2023-05-22T10:59:00;99314.97;;;25.56;37.54
18569;BME280;14780;48.316;-1.050;2023-05-22T11:01:59;99310.56;;;25.65;37.65
18569;BME280;14780;48.316;-1.050;2023-05-22T11:04:44;99322.34;;;25.60;37.64
18569;BME280;14780;48.316;-1.050;2023-05-22T11:07:40;99304.81;;;25.66;37.76
18569;BME280;14780;48.316;-1.050;2023-05-22T11:10:25;99316.88;;;25.65;37.68
18569;BME280;14780;48.316;-1.050;2023-05-22T11:13:11;99308.06;;;25.68;37.67
18569;BME280;14780;48.316;-1.050;2023-05-22T11:15:56;99304.22;;;25.69;37.66
18569;BME280;14780;48.316;-1.050;2023-05-22T11:18:42;99311.34;;;25.70;37.75
18569;BME280;14780;48.316;-1.050;2023-05-22T11:21:28;99309.19;;;25.72;37.60
18569;BME280;14780;48.316;-1.050;2023-05-22T11:24:15;99305.84;;;25.75;37.66
18569;BME280;14780;48.316;-1.050;2023-05-22T11:27:07;99310.78;;;25.78;37.70
18569;BME280;14780;48.316;-1.050;2023-05-22T11:29:53;99308.03;;;25.78;37.66
18569;BME280;14780;48.316;-1.050;2023-05-22T11:32:39;99313.25;;;25.80;37.54
18569;BME280;14780;48.316;-1.050;2023-05-22T11:35:25;99308.03;;;25.83;37.76
18569;BME280;14780;48.316;-1.050;2023-05-22T11:38:10;99306.91;;;25.84;37.67
18569;BME280;14780;48.316;-1.050;2023-05-22T11:40:56;99305.81;;;25.85;37.53
18569;BME280;14780;48.316;-1.050;2023-05-22T11:43:42;99305.31;;;25.88;37.53
18569;BME280;14780;48.316;-1.050;2023-05-22T11:46:27;99307.78;;;25.90;37.45
18569;BME280;14780;48.316;-1.050;2023-05-22T11:49:13;99302.53;;;25.93;37.56
18569;BME280;14780;48.316;-1.050;2023-05-22T11:51:58;99302.53;;;25.93;37.56
18569;BME280;14780;48.316;-1.050;2023-05-22T11:54:47;99304.44;;;25.98;37.66
18569;BME280;14780;48.316;-1.050;2023-05-22T11:57:32;99308.25;;;26.02;37.60
18569;BME280;14780;48.316;-1.050;2023-05-22T12:00:18;99304.97;;;26.05;37.49
18569;BME280;14780;48.316;-1.050;2023-05-22T12:03:04;99302.75;;;26.07;37.48
18569;BME280;14780;48.316;-1.050;2023-05-22T12:05:50;99296.16;;;26.08;37.59
18569;BME280;14780;48.316;-1.050;2023-05-22T12:08:35;99299.72;;;26.08;37.53
18569;BME280;14780;48.316;-1.050;2023-05-22T12:11:20;99301.91;;;26.11;37.46
18569;BME280;14780;48.316;-1.050;2023-05-22T12:14:05;99295.84;;;26.14;37.60
18569;BME280;14780;48.316;-1.050;2023-05-22T12:16:55;99293.34;;;26.18;37.53
18569;BME280;14780;48.316;-1.050;2023-05-22T12:19:41;99300.75;;;26.22;37.45
18569;BME280;14780;48.316;-1.050;2023-05-22T12:22:27;99298.56;;;26.24;37.52
18569;BME280;14780;48.316;-1.050;2023-05-22T12:25:16;99302.34;;;26.28;37.48
18569;BME280;14780;48.316;-1.050;2023-05-22T12:28:01;99305.09;;;26.28;37.61
18569;BME280;14780;48.316;-1.050;2023-05-22T12:30:46;99301.25;;;26.29;37.58
18569;BME280;14780;48.316;-1.050;2023-05-22T12:33:38;99306.47;;;26.31;37.54
18569;BME280;14780;48.316;-1.050;2023-05-22T12:36:44;99301.72;;;26.41;37.59
18569;BME280;14780;48.316;-1.050;2023-05-22T12:39:29;99305.06;;;26.33;37.46
18569;BME280;14780;48.316;-1.050;2023-05-22T12:42:14;99305.59;;;26.35;37.59
18569;BME280;14780;48.316;-1.050;2023-05-22T12:44:59;99300.38;;;26.39;37.46
18569;BME280;14780;48.316;-1.050;2023-05-22T12:47:44;99300.94;;;26.41;37.63
18569;BME280;14780;48.316;-1.050;2023-05-22T12:50:29;99305.84;;;26.44;37.57
18569;BME280;14780;48.316;-1.050;2023-05-22T12:53:14;99290.72;;;26.46;37.49
18569;BME280;14780;48.316;-1.050;2023-05-22T12:55:59;99294.00;;;26.48;37.55
18569;BME280;14780;48.316;-1.050;2023-05-22T12:58:44;99298.94;;;26.51;37.49
18569;BME280;14780;48.316;-1.050;2023-05-22T13:01:28;99300.59;;;26.52;37.59
18569;BME280;14780;48.316;-1.050;2023-05-22T13:04:13;99300.03;;;26.55;37.49
18569;BME280;14780;48.316;-1.050;2023-05-22T13:06:57;99291.50;;;26.57;37.58
18569;BME280;14780;48.316;-1.050;2023-05-22T13:09:42;99291.25;;;26.58;37.51
18569;BME280;14780;48.316;-1.050;2023-05-22T13:12:27;99287.09;;;26.61;37.30
18569;BME280;14780;48.316;-1.050;2023-05-22T13:15:12;99292.00;;;26.64;37.40
18569;BME280;14780;48.316;-1.050;2023-05-22T13:17:59;99289.78;;;26.66;37.39
18569;BME280;14780;48.316;-1.050;2023-05-22T13:20:44;99290.63;;;26.66;37.37
18569;BME280;14780;48.316;-1.050;2023-05-22T13:23:29;99290.03;;;26.69;37.47
18569;BME280;14780;48.316;-1.050;2023-05-22T13:26:14;99298.00;;;26.71;37.46
18569;BME280;14780;48.316;-1.050;2023-05-22T13:28:59;99286.72;;;26.72;37.21
18569;BME280;14780;48.316;-1.050;2023-05-22T13:31:43;99285.06;;;26.76;37.31
18569;BME280;14780;48.316;-1.050;2023-05-22T13:34:28;99291.38;;;26.77;37.40
18569;BME280;14780;48.316;-1.050;2023-05-22T13:37:13;99295.44;;;26.79;37.31
18569;BME280;14780;48.316;-1.050;2023-05-22T13:39:58;99296.00;;;26.81;37.32
18569;BME280;14780;48.316;-1.050;2023-05-22T13:42:44;99302.84;;;26.84;37.33
18569;BME280;14780;48.316;-1.050;2023-05-22T13:45:28;99287.69;;;26.86;37.15
18569;BME280;14780;48.316;-1.050;2023-05-22T13:48:14;99285.50;;;26.88;37.32
18569;BME280;14780;48.316;-1.050;2023-05-22T13:50:59;99290.69;;;26.90;37.21
18569;BME280;14780;48.316;-1.050;2023-05-22T13:53:44;99281.06;;;26.92;37.11
18569;BME280;14780;48.316;-1.050;2023-05-22T13:56:29;99292.28;;;26.96;37.25
18569;BME280;14780;48.316;-1.050;2023-05-22T13:59:14;99281.03;;;26.97;37.25
18569;BME280;14780;48.316;-1.050;2023-05-22T14:01:59;99280.75;;;26.99;37.21
18569;BME280;14780;48.316;-1.050;2023-05-22T14:04:43;99274.94;;;27.00;37.23
18569;BME280;14780;48.316;-1.050;2023-05-22T14:07:28;99272.75;;;27.02;37.03
18569;BME280;14780;48.316;-1.050;2023-05-22T14:10:13;99276.31;;;27.03;37.36
18569;BME280;14780;48.316;-1.050;2023-05-22T14:12:57;99274.41;;;27.03;37.30
18569;BME280;14780;48.316;-1.050;2023-05-22T14:15:42;99276.81;;;27.05;37.09
18569;BME280;14780;48.316;-1.050;2023-05-22T14:18:30;99272.16;;;27.05;37.13
18569;BME280;14780;48.316;-1.050;2023-05-22T14:21:15;99267.50;;;27.06;37.01
18569;BME280;14780;48.316;-1.050;2023-05-22T14:24:02;99267.19;;;27.07;37.11
18569;BME280;14780;48.316;-1.050;2023-05-22T14:26:47;99280.94;;;27.07;37.12
18569;BME280;14780;48.316;-1.050;2023-05-22T14:29:33;99273.25;;;27.09;36.93
18569;BME280;14780;48.316;-1.050;2023-05-22T14:32:18;99265.53;;;27.11;36.96
18569;BME280;14780;48.316;-1.050;2023-05-22T14:35:03;99273.50;;;27.13;37.04
18569;BME280;14780;48.316;-1.050;2023-05-22T14:37:48;99279.78;;;27.13;37.01
18569;BME280;14780;48.316;-1.050;2023-05-22T14:40:32;99277.03;;;27.13;36.97
18569;BME280;14780;48.316;-1.050;2023-05-22T14:43:17;99274.56;;;27.12;37.16
18569;BME280;14780;48.316;-1.050;2023-05-22T14:46:02;99278.97;;;27.13;37.13
18569;BME280;14780;48.316;-1.050;2023-05-22T14:48:47;99268.00;;;27.13;37.05
18569;BME280;14780;48.316;-1.050;2023-05-22T14:51:31;99275.94;;;27.14;36.95
18569;BME280;14780;48.316;-1.050;2023-05-22T14:54:16;99267.44;;;27.16;36.97
18569;BME280;14780;48.316;-1.050;2023-05-22T14:57:02;99263.56;;;27.17;37.06
18569;BME280;14780;48.316;-1.050;2023-05-22T14:59:47;99280.88;;;27.17;37.06
18569;BME280;14780;48.316;-1.050;2023-05-22T15:02:32;99262.78;;;27.16;36.81